createdAt,value
2023-02-11T00:01:30.814Z,102869.50
2023-02-11T00:06:34.172Z,102871.28
2023-02-11T00:11:36.473Z,102865.06
2023-02-11T00:16:38.648Z,102865.94
2023-02-11T00:21:40.577Z,102865.97
2023-02-11T00:26:42.840Z,102871.28
2023-02-11T00:31:45.013Z,102864.13
2023-02-11T00:36:47.098Z,102874.75
2023-02-11T00:41:49.082Z,102876.50
2023-02-11T00:46:50.945Z,102873.88
2023-02-11T00:51:53.347Z,102868.59
2023-02-11T00:56:55.264Z,102865.94
2023-02-11T01:01:57.223Z,102862.38
2023-02-11T01:06:59.067Z,102862.34
2023-02-11T01:12:01.042Z,102848.28
2023-02-11T01:17:06.066Z,102847.41
2023-02-11T01:22:08.147Z,102852.66
2023-02-11T01:27:10.221Z,102872.06
2023-02-11T01:32:12.232Z,102878.28
2023-02-11T01:37:14.264Z,102880.00
2023-02-11T01:42:18.570Z,102880.00
2023-02-11T01:47:21.645Z,102876.50
2023-02-11T01:52:35.541Z,102870.28
2023-02-11T01:57:40.545Z,102876.47
2023-02-11T02:02:48.376Z,102884.41
2023-02-11T02:08:22.170Z,102871.22
2023-02-11T02:13:24.470Z,102870.31
2023-02-11T02:18:40.259Z,102870.34
2023-02-11T02:23:47.637Z,102850.88
2023-02-11T02:29:20.766Z,102854.44
2023-02-11T02:35:16.871Z,102842.94
2023-02-11T02:40:33.524Z,102852.69
2023-02-11T02:45:35.634Z,102857.94
2023-02-11T02:50:38.300Z,102850.88
2023-02-11T02:56:04.703Z,102833.28
2023-02-11T03:01:26.691Z,102849.09
2023-02-11T03:07:17.087Z,102841.16
2023-02-11T03:12:21.375Z,102833.25
2023-02-11T03:17:26.424Z,102828.78
2023-02-11T03:22:38.059Z,102818.25
2023-02-11T03:28:01.738Z,102814.75
2023-02-11T03:33:14.850Z,102820.88
2023-02-11T03:38:22.912Z,102818.22
2023-02-11T03:43:34.049Z,102812.94
2023-02-11T03:48:42.196Z,102810.28
2023-02-11T03:53:46.989Z,102807.59
2023-02-11T03:58:49.388Z,102808.53
2023-02-11T04:03:51.310Z,102808.50
2023-02-11T04:08:53.556Z,102823.56
2023-02-11T04:13:55.303Z,102824.44
2023-02-11T04:18:58.130Z,102819.13
2023-02-11T04:24:00.166Z,102813.78
2023-02-11T04:29:02.157Z,102809.38
2023-02-11T04:34:04.090Z,102802.41
2023-02-11T04:39:06.233Z,102802.34
2023-02-11T04:44:08.171Z,102793.47
2023-02-11T04:49:13.777Z,102801.47
2023-02-11T04:54:15.651Z,102798.84
2023-02-11T04:59:17.793Z,102801.50
2023-02-11T05:04:19.827Z,102793.56
2023-02-11T05:09:21.909Z,102788.25
2023-02-11T05:14:23.782Z,102795.34
2023-02-11T05:19:25.649Z,102788.19
2023-02-11T05:24:27.621Z,102783.75
2023-02-11T05:29:29.773Z,102782.06
2023-02-11T05:34:31.737Z,102778.47
2023-02-11T05:39:33.725Z,102792.59
2023-02-11T05:44:35.729Z,102790.84
2023-02-11T05:49:37.581Z,102794.38
2023-02-11T05:54:39.885Z,102790.88
2023-02-11T05:59:42.011Z,102783.81
2023-02-11T06:04:44.596Z,102794.44
2023-02-11T06:09:46.607Z,102800.59
2023-02-11T06:14:48.636Z,102803.19
2023-02-11T06:19:50.704Z,102792.56
2023-02-11T06:25:01.369Z,102796.16
2023-02-11T06:30:05.701Z,102800.56
2023-02-11T06:35:10.751Z,102803.19
2023-02-11T06:40:13.685Z,102803.19
2023-02-11T06:45:15.677Z,102795.25
2023-02-11T06:50:17.549Z,102797.06
2023-02-11T06:55:19.460Z,102797.00
2023-02-11T07:00:21.434Z,102797.94
2023-02-11T07:05:23.591Z,102796.19
2023-02-11T07:10:25.561Z,102795.28
2023-02-11T07:15:27.438Z,102797.00
2023-02-11T07:20:29.524Z,102792.63
2023-02-11T07:25:31.616Z,102808.53
2023-02-11T07:30:33.555Z,102815.59
2023-02-11T07:35:35.844Z,102827.03
2023-02-11T07:40:37.958Z,102827.97
2023-02-11T07:45:40.088Z,102831.50
2023-02-11T07:50:42.113Z,102842.94
2023-02-11T07:55:44.431Z,102823.56
2023-02-11T08:00:46.455Z,102835.88
2023-02-11T08:05:48.387Z,102835.00
2023-02-11T08:10:50.722Z,102839.44
2023-02-11T08:15:53.069Z,102842.94
2023-02-11T08:20:55.053Z,102852.69
2023-02-11T08:26:00.924Z,102850.88
2023-02-11T08:31:07.654Z,102865.00
2023-02-11T08:36:14.786Z,102867.69
2023-02-11T08:41:17.586Z,102865.88
2023-02-11T08:46:20.654Z,102880.91
2023-02-11T08:51:25.769Z,102882.72
2023-02-11T08:56:28.287Z,102884.47
2023-02-11T09:01:31.922Z,102886.22
2023-02-11T09:06:33.802Z,102893.28
2023-02-11T09:11:36.353Z,102892.38
2023-02-11T09:16:38.383Z,102896.81
2023-02-11T09:21:40.439Z,102891.50
2023-02-11T09:26:43.943Z,102901.22
2023-02-11T09:31:45.895Z,102907.34
2023-02-11T09:36:48.101Z,102914.47
2023-02-11T09:42:07.644Z,102910.94
2023-02-11T09:47:33.037Z,102906.50
2023-02-11T09:52:44.662Z,102908.31
2023-02-11T09:57:47.038Z,102912.69
2023-02-11T10:03:16.387Z,102930.38
2023-02-11T10:08:50.938Z,102939.16
2023-02-11T10:14:09.889Z,102944.47
2023-02-11T10:19:27.214Z,102941.81
2023-02-11T10:24:29.322Z,102945.34
2023-02-11T10:29:40.549Z,102960.38
2023-02-11T10:34:42.971Z,102955.91
2023-02-11T10:39:45.703Z,102961.28
2023-02-11T10:44:59.211Z,102960.38
2023-02-11T10:50:03.831Z,102950.59
2023-02-11T10:55:16.565Z,102955.06
2023-02-11T11:00:19.058Z,102953.28
2023-02-11T11:05:27.261Z,102950.59
2023-02-11T11:10:36.708Z,102952.28
2023-02-11T11:15:38.702Z,102951.44
2023-02-11T11:20:54.927Z,102950.59
2023-02-11T11:26:04.969Z,102955.97
2023-02-11T11:31:15.631Z,102965.63
2023-02-11T11:36:22.361Z,102965.66
2023-02-11T11:41:31.060Z,102969.19
2023-02-11T11:46:40.609Z,102954.13
2023-02-11T11:51:47.873Z,102965.72
2023-02-11T11:57:02.894Z,102963.09
2023-02-11T12:02:08.644Z,102946.34
2023-02-11T12:07:47.927Z,102958.69
2023-02-11T12:13:01.990Z,102943.69
2023-02-11T12:18:33.538Z,102945.47
2023-02-11T12:23:44.693Z,102946.34
2023-02-11T12:29:08.949Z,102954.25
2023-02-11T12:34:38.826Z,102959.56
2023-02-11T12:39:48.525Z,102947.19
2023-02-11T12:44:58.947Z,102938.28
2023-02-11T12:50:39.178Z,102945.38
2023-02-11T12:55:45.911Z,102936.56
2023-02-11T13:01:04.510Z,102947.13
2023-02-11T13:06:17.931Z,102933.00
2023-02-11T13:11:37.385Z,102940.06
2023-02-11T13:16:51.040Z,102937.34
2023-02-11T13:22:18.341Z,102918.91
2023-02-11T13:27:43.612Z,102930.28
2023-02-11T13:32:54.458Z,102929.34
2023-02-11T13:37:58.026Z,102920.63
2023-02-11T13:43:02.803Z,102924.19
2023-02-11T13:48:14.991Z,102924.19
2023-02-11T13:53:18.043Z,102918.00
2023-02-11T13:58:36.693Z,102907.38
2023-02-11T14:03:58.466Z,102921.50
2023-02-11T14:09:10.828Z,102918.88
2023-02-11T14:14:31.116Z,102911.78
2023-02-11T14:19:41.389Z,102921.53
2023-02-11T14:24:51.260Z,102923.28
2023-02-11T14:30:18.917Z,102921.53
2023-02-11T14:35:32.588Z,102924.06
2023-02-11T14:40:56.276Z,102926.75
2023-02-11T14:46:00.334Z,102925.00
2023-02-11T14:51:10.144Z,102924.97
2023-02-11T14:56:38.626Z,102928.56
2023-02-11T15:01:42.317Z,102932.91
2023-02-11T15:06:50.057Z,102941.75
2023-02-11T15:11:52.757Z,102939.00
2023-02-11T15:16:59.070Z,102947.88
2023-02-11T15:22:00.976Z,102951.41
2023-02-11T15:27:08.775Z,102943.50
2023-02-11T15:32:10.890Z,102935.66
2023-02-11T15:37:26.634Z,102936.47
2023-02-11T15:42:40.834Z,102941.72
2023-02-11T15:47:52.226Z,102936.59
2023-02-11T15:52:56.561Z,102939.19
2023-02-11T15:58:01.278Z,102952.44
2023-02-11T16:03:03.648Z,102940.97
2023-02-11T16:08:26.431Z,102942.69
2023-02-11T16:13:29.832Z,102946.19
2023-02-11T16:19:03.275Z,102953.25
2023-02-11T16:24:08.276Z,102955.94
2023-02-11T16:29:20.553Z,102965.66
2023-02-11T16:34:25.089Z,102955.09
2023-02-11T16:39:27.014Z,102954.22
2023-02-11T16:44:29.139Z,102961.25
2023-02-11T16:49:35.999Z,102968.34
2023-02-11T16:54:38.185Z,102969.22
2023-02-11T16:59:40.056Z,102986.84
2023-02-11T17:04:42.062Z,102986.88
2023-02-11T17:09:44.069Z,102988.63
2023-02-11T17:14:45.905Z,102977.16
2023-02-11T17:19:48.482Z,102995.69
2023-02-11T17:24:50.497Z,103000.97
2023-02-11T17:29:52.304Z,103010.69
2023-02-11T17:34:54.721Z,103005.34
2023-02-11T17:39:56.709Z,103011.53
2023-02-11T17:44:58.826Z,103015.97
2023-02-11T17:50:01.683Z,103021.28
2023-02-11T17:55:03.958Z,103023.03
2023-02-11T18:00:08.308Z,103033.63
2023-02-11T18:05:10.545Z,103040.66
2023-02-11T18:10:12.485Z,103052.16
2023-02-11T18:15:14.512Z,103053.03
2023-02-11T18:20:16.867Z,103055.66
2023-02-11T18:25:19.042Z,103068.91
2023-02-11T18:30:21.437Z,103068.91
2023-02-11T18:35:24.130Z,103066.25
2023-02-11T18:40:26.181Z,103076.84
2023-02-11T18:45:31.559Z,103070.69
2023-02-11T18:50:33.769Z,103059.19
2023-02-11T18:55:35.814Z,103061.81
2023-02-11T19:00:40.742Z,103069.78
2023-02-11T19:05:43.593Z,103064.47
2023-02-11T19:10:47.580Z,103064.44
2023-02-11T19:15:50.050Z,103077.72
2023-02-11T19:20:52.248Z,103079.47
2023-02-11T19:25:54.469Z,103075.88
2023-02-11T19:30:56.503Z,103073.19
2023-02-11T19:36:08.593Z,103084.72
2023-02-11T19:41:11.704Z,103090.88
2023-02-11T19:46:13.809Z,103086.44
2023-02-11T19:51:16.536Z,103089.09
2023-02-11T19:56:20.747Z,103087.28
2023-02-11T20:01:24.565Z,103089.97
2023-02-11T20:06:29.095Z,103096.09
2023-02-11T20:11:32.052Z,103095.22
2023-02-11T20:16:47.413Z,103101.41
2023-02-11T20:21:56.149Z,103099.69
2023-02-11T20:26:58.077Z,103105.84
2023-02-11T20:32:00.335Z,103107.63
2023-02-11T20:37:04.216Z,103115.59
2023-02-11T20:42:06.097Z,103114.69
2023-02-11T20:47:07.991Z,103117.31
2023-02-11T20:52:09.815Z,103130.59
2023-02-11T20:57:11.842Z,103128.81
2023-02-11T21:02:13.846Z,103132.34
2023-02-11T21:07:15.811Z,103142.97
2023-02-11T21:12:17.720Z,103151.81
2023-02-11T21:17:19.896Z,103145.59
2023-02-11T21:22:22.307Z,103151.78
2023-02-11T21:27:31.382Z,103144.69
2023-02-11T21:32:33.290Z,103157.97
2023-02-11T21:37:35.121Z,103153.53
2023-02-11T21:42:37.036Z,103157.09
2023-02-11T21:47:39.071Z,103169.44
2023-02-11T21:52:41.074Z,103168.56
2023-02-11T21:57:43.265Z,103165.91
2023-02-11T22:02:45.913Z,103157.94
2023-02-11T22:07:49.004Z,103156.22
2023-02-11T22:12:51.066Z,103154.44
2023-02-11T22:17:53.000Z,103153.53
2023-02-11T22:22:54.907Z,103160.63
2023-02-11T22:27:56.926Z,103154.44
2023-02-11T22:32:59.927Z,103163.22
2023-02-11T22:38:01.856Z,103147.34
2023-02-11T22:43:03.782Z,103153.56
2023-02-11T22:48:06.164Z,103154.44
2023-02-11T22:53:08.138Z,103149.13
2023-02-11T22:58:10.454Z,103158.81
2023-02-11T23:03:13.262Z,103167.66
2023-02-11T23:08:15.316Z,103161.50
2023-02-11T23:13:17.455Z,103167.66
2023-02-11T23:18:19.484Z,103171.22
2023-02-11T23:23:21.258Z,103181.81
2023-02-11T23:28:23.218Z,103180.06
2023-02-11T23:33:25.328Z,103179.16
2023-02-11T23:38:27.434Z,103180.03
2023-02-11T23:43:29.516Z,103179.16
2023-02-11T23:48:31.933Z,103175.59
2023-02-11T23:53:33.780Z,103171.19
2023-02-11T23:58:36.517Z,103170.31
